sensor_id;sensor_type;location;lat;lon;timestamp;pressure;altitude;pressure_sealevel;temperature;humidity
9415;BME280;4746;35.664;139.738;2022-09-29T00:01:10;100159.59;;;28.99;42.67
9415;BME280;4746;35.664;139.738;2022-09-29T00:03:39;100160.66;;;29.09;42.69
9415;BME280;4746;35.664;139.738;2022-09-29T00:06:14;100155.78;;;29.28;42.08
9415;BME280;4746;35.664;139.738;2022-09-29T00:08:43;100153.66;;;29.33;42.41
9415;BME280;4746;35.664;139.738;2022-09-29T00:11:18;100157.06;;;29.47;41.90
9415;BME280;4746;35.664;139.738;2022-09-29T00:13:47;100166.00;;;29.57;41.36
9415;BME280;4746;35.664;139.738;2022-09-29T00:16:15;100165.69;;;29.74;41.00
9415;BME280;4746;35.664;139.738;2022-09-29T00:18:42;100170.72;;;29.89;40.46
9415;BME280;4746;35.664;139.738;2022-09-29T00:21:16;100170.44;;;30.05;40.32
9415;BME280;4746;35.664;139.738;2022-09-29T00:23:48;100170.94;;;30.10;40.19
9415;BME280;4746;35.664;139.738;2022-09-29T00:26:20;100162.97;;;30.22;40.26
9415;BME280;4746;35.664;139.738;2022-09-29T00:28:54;100166.03;;;30.39;40.13
9415;BME280;4746;35.664;139.738;2022-09-29T00:31:31;100163.41;;;30.63;39.92
9415;BME280;4746;35.664;139.738;2022-09-29T00:34:00;100175.22;;;30.70;39.30
9415;BME280;4746;35.664;139.738;2022-09-29T00:36:27;100178.25;;;30.87;38.65
9415;BME280;4746;35.664;139.738;2022-09-29T00:38:56;100173.88;;;30.99;38.27
9415;BME280;4746;35.664;139.738;2022-09-29T00:41:28;100172.06;;;30.99;38.57
9415;BME280;4746;35.664;139.738;2022-09-29T00:47:08;100178.84;;;31.14;38.53
9415;BME280;4746;35.664;139.738;2022-09-29T00:50:36;100169.94;;;31.26;38.51
9415;BME280;4746;35.664;139.738;2022-09-29T00:53:07;100160.53;;;31.22;38.25
9415;BME280;4746;35.664;139.738;2022-09-29T00:55:58;100158.34;;;31.27;37.86
9415;BME280;4746;35.664;139.738;2022-09-29T01:00:59;100167.38;;;31.35;38.08
9415;BME280;4746;35.664;139.738;2022-09-29T01:03:39;100168.47;;;31.33;38.18
9415;BME280;4746;35.664;139.738;2022-09-29T01:06:21;100163.06;;;31.34;38.77
9415;BME280;4746;35.664;139.738;2022-09-29T01:09:07;100162.72;;;31.50;38.28
9415;BME280;4746;35.664;139.738;2022-09-29T01:11:36;100162.22;;;31.56;37.67
9415;BME280;4746;35.664;139.738;2022-09-29T01:14:08;100161.63;;;31.74;37.83
9415;BME280;4746;35.664;139.738;2022-09-29T01:16:38;100157.84;;;31.87;36.99
9415;BME280;4746;35.664;139.738;2022-09-29T01:34:39;100126.31;;;31.84;35.47
9415;BME280;4746;35.664;139.738;2022-09-29T01:37:51;100126.31;;;31.73;35.76
9415;BME280;4746;35.664;139.738;2022-09-29T01:40:41;100125.94;;;31.78;36.47
9415;BME280;4746;35.664;139.738;2022-09-29T01:43:30;100116.84;;;32.02;36.06
9415;BME280;4746;35.664;139.738;2022-09-29T01:46:10;100120.78;;;32.19;36.06
9415;BME280;4746;35.664;139.738;2022-09-29T01:48:46;100124.34;;;32.29;35.57
9415;BME280;4746;35.664;139.738;2022-09-29T01:51:23;100116.22;;;32.41;35.18
9415;BME280;4746;35.664;139.738;2022-09-29T01:54:02;100106.31;;;32.54;34.39
9415;BME280;4746;35.664;139.738;2022-09-29T02:00:11;100103.84;;;32.92;33.46
9415;BME280;4746;35.664;139.738;2022-09-29T02:05:43;100095.25;;;33.29;32.58
9415;BME280;4746;35.664;139.738;2022-09-29T02:11:06;100106.66;;;33.50;31.88
9415;BME280;4746;35.664;139.738;2022-09-29T02:16:31;100093.56;;;33.67;31.31
9415;BME280;4746;35.664;139.738;2022-09-29T02:19:30;100090.34;;;33.54;31.08
9415;BME280;4746;35.664;139.738;2022-09-29T02:22:00;100081.56;;;33.33;30.96
9415;BME280;4746;35.664;139.738;2022-09-29T02:24:27;100079.88;;;33.32;30.99
9415;BME280;4746;35.664;139.738;2022-09-29T02:26:56;100086.88;;;33.33;31.08
9415;BME280;4746;35.664;139.738;2022-09-29T02:29:24;100089.78;;;33.21;30.85
9415;BME280;4746;35.664;139.738;2022-09-29T02:31:51;100098.91;;;33.08;30.88
9415;BME280;4746;35.664;139.738;2022-09-29T02:34:21;100081.09;;;32.99;30.99
9415;BME280;4746;35.664;139.738;2022-09-29T02:46:00;100070.16;;;33.13;31.58
9415;BME280;4746;35.664;139.738;2022-09-29T02:49:00;100061.66;;;33.18;31.36
9415;BME280;4746;35.664;139.738;2022-09-29T02:51:47;100064.84;;;33.13;31.41
9415;BME280;4746;35.664;139.738;2022-09-29T03:00:11;100073.16;;;33.28;31.30
9415;BME280;4746;35.664;139.738;2022-09-29T03:02:41;100065.81;;;33.12;31.71
9415;BME280;4746;35.664;139.738;2022-09-29T03:05:19;100084.69;;;32.88;32.02
9415;BME280;4746;35.664;139.738;2022-09-29T03:07:47;100072.34;;;32.78;32.66
9415;BME280;4746;35.664;139.738;2022-09-29T03:10:17;100074.63;;;32.92;32.62
9415;BME280;4746;35.664;139.738;2022-09-29T03:12:45;100068.38;;;32.93;33.07
9415;BME280;4746;35.664;139.738;2022-09-29T03:15:13;100054.88;;;33.05;34.22
9415;BME280;4746;35.664;139.738;2022-09-29T03:17:41;100051.69;;;33.11;34.98
9415;BME280;4746;35.664;139.738;2022-09-29T03:20:09;100049.78;;;33.22;35.46
9415;BME280;4746;35.664;139.738;2022-09-29T03:22:37;100053.31;;;33.42;35.00
9415;BME280;4746;35.664;139.738;2022-09-29T03:25:05;100066.84;;;33.59;34.97
9415;BME280;4746;35.664;139.738;2022-09-29T03:27:33;100059.88;;;33.77;35.11
9415;BME280;4746;35.664;139.738;2022-09-29T03:30:03;100065.16;;;33.87;34.96
9415;BME280;4746;35.664;139.738;2022-09-29T03:32:30;100070.94;;;33.91;35.13
9415;BME280;4746;35.664;139.738;2022-09-29T03:34:58;100058.72;;;33.98;34.91
9415;BME280;4746;35.664;139.738;2022-09-29T03:37:25;100062.41;;;34.07;35.87
9415;BME280;4746;35.664;139.738;2022-09-29T03:39:53;100065.50;;;34.12;34.82
9415;BME280;4746;35.664;139.738;2022-09-29T03:42:20;100070.53;;;34.05;35.70
9415;BME280;4746;35.664;139.738;2022-09-29T03:44:49;100067.72;;;34.07;35.56
9415;BME280;4746;35.664;139.738;2022-09-29T03:47:17;100059.63;;;34.18;35.40
9415;BME280;4746;35.664;139.738;2022-09-29T03:49:44;100057.38;;;34.32;35.29
9415;BME280;4746;35.664;139.738;2022-09-29T03:52:12;100056.91;;;34.56;34.48
9415;BME280;4746;35.664;139.738;2022-09-29T03:54:39;100048.44;;;34.88;34.50
9415;BME280;4746;35.664;139.738;2022-09-29T03:57:07;100048.75;;;35.12;33.39
9415;BME280;4746;35.664;139.738;2022-09-29T03:59:34;100045.91;;;35.23;32.50
9415;BME280;4746;35.664;139.738;2022-09-29T04:02:02;100050.34;;;35.32;32.45
9415;BME280;4746;35.664;139.738;2022-09-29T04:04:30;100057.28;;;35.52;31.57
9415;BME280;4746;35.664;139.738;2022-09-29T04:06:57;100046.84;;;35.58;31.49
9415;BME280;4746;35.664;139.738;2022-09-29T04:09:25;100047.75;;;35.94;31.37
9415;BME280;4746;35.664;139.738;2022-09-29T04:11:52;100037.78;;;36.38;30.86
9415;BME280;4746;35.664;139.738;2022-09-29T04:14:20;100036.00;;;36.72;29.73
9415;BME280;4746;35.664;139.738;2022-09-29T04:16:47;100041.97;;;36.83;29.70
9415;BME280;4746;35.664;139.738;2022-09-29T04:19:15;100035.34;;;36.95;29.24
9415;BME280;4746;35.664;139.738;2022-09-29T04:21:42;100046.97;;;37.20;29.12
9415;BME280;4746;35.664;139.738;2022-09-29T04:24:10;100047.59;;;37.55;28.54
9415;BME280;4746;35.664;139.738;2022-09-29T04:26:37;100050.34;;;37.79;28.56
9415;BME280;4746;35.664;139.738;2022-09-29T04:29:05;100034.34;;;37.95;27.84
9415;BME280;4746;35.664;139.738;2022-09-29T04:31:33;100034.19;;;38.04;27.96
9415;BME280;4746;35.664;139.738;2022-09-29T04:34:01;100038.38;;;38.23;28.14
9415;BME280;4746;35.664;139.738;2022-09-29T04:36:28;100040.34;;;38.52;27.57
9415;BME280;4746;35.664;139.738;2022-09-29T04:38:56;100036.47;;;38.79;27.17
9415;BME280;4746;35.664;139.738;2022-09-29T04:41:23;100039.72;;;39.12;26.17
9415;BME280;4746;35.664;139.738;2022-09-29T04:43:51;100046.78;;;39.74;25.48
9415;BME280;4746;35.664;139.738;2022-09-29T04:46:19;100040.69;;;40.10;25.22
9415;BME280;4746;35.664;139.738;2022-09-29T04:48:47;100037.06;;;40.03;25.25
9415;BME280;4746;35.664;139.738;2022-09-29T04:51:14;100031.06;;;39.71;25.29
9415;BME280;4746;35.664;139.738;2022-09-29T04:53:42;100038.91;;;39.50;25.42
9415;BME280;4746;35.664;139.738;2022-09-29T04:56:10;100045.50;;;39.70;24.85
9415;BME280;4746;35.664;139.738;2022-09-29T04:58:37;100039.78;;;39.73;24.84
9415;BME280;4746;35.664;139.738;2022-09-29T05:01:11;100034.69;;;40.23;24.96
9415;BME280;4746;35.664;139.738;2022-09-29T05:03:40;100028.44;;;40.96;23.89
9415;BME280;4746;35.664;139.738;2022-09-29T05:06:09;100029.91;;;41.27;23.40
9415;BME280;4746;35.664;139.738;2022-09-29T05:08:37;100039.84;;;40.98;23.86
9415;BME280;4746;35.664;139.738;2022-09-29T05:11:09;100032.75;;;40.53;24.13
9415;BME280;4746;35.664;139.738;2022-09-29T05:13:37;100026.25;;;39.89;24.70
9415;BME280;4746;35.664;139.738;2022-09-29T05:16:05;100023.53;;;39.67;24.45
9415;BME280;4746;35.664;139.738;2022-09-29T05:18:33;100020.84;;;39.36;24.54
9415;BME280;4746;35.664;139.738;2022-09-29T05:21:06;100029.94;;;38.73;25.23
9415;BME280;4746;35.664;139.738;2022-09-29T05:23:34;100039.22;;;38.39;25.43
9415;BME280;4746;35.664;139.738;2022-09-29T05:26:05;100047.25;;;38.31;25.92
9415;BME280;4746;35.664;139.738;2022-09-29T05:28:35;100039.66;;;37.79;26.28
9415;BME280;4746;35.664;139.738;2022-09-29T05:31:07;100044.88;;;37.31;26.68
9415;BME280;4746;35.664;139.738;2022-09-29T05:33:36;100037.84;;;36.97;26.74
9415;BME280;4746;35.664;139.738;2022-09-29T05:36:09;100051.41;;;36.78;27.35
9415;BME280;4746;35.664;139.738;2022-09-29T05:38:38;100048.47;;;36.38;27.50
9415;BME280;4746;35.664;139.738;2022-09-29T05:41:09;100048.78;;;36.01;28.69
9415;BME280;4746;35.664;139.738;2022-09-29T05:43:39;100048.97;;;35.55;28.49
9415;BME280;4746;35.664;139.738;2022-09-29T05:46:09;100052.13;;;35.14;28.91
9415;BME280;4746;35.664;139.738;2022-09-29T05:48:37;100060.91;;;34.78;29.24
9415;BME280;4746;35.664;139.738;2022-09-29T05:51:12;100066.41;;;34.49;29.79
9415;BME280;4746;35.664;139.738;2022-09-29T05:53:40;100068.28;;;34.10;30.92
9415;BME280;4746;35.664;139.738;2022-09-29T05:56:14;100067.97;;;33.85;31.49
9415;BME280;4746;35.664;139.738;2022-09-29T05:58:42;100064.59;;;33.55;32.04
9415;BME280;4746;35.664;139.738;2022-09-29T06:01:13;100069.94;;;33.34;32.29
9415;BME280;4746;35.664;139.738;2022-09-29T06:03:42;100068.91;;;33.17;32.87
9415;BME280;4746;35.664;139.738;2022-09-29T06:06:16;100072.03;;;33.01;32.88
9415;BME280;4746;35.664;139.738;2022-09-29T06:08:46;100069.84;;;32.86;32.92
9415;BME280;4746;35.664;139.738;2022-09-29T06:11:20;100081.16;;;32.78;33.21
9415;BME280;4746;35.664;139.738;2022-09-29T06:13:51;100076.50;;;32.71;33.61
9415;BME280;4746;35.664;139.738;2022-09-29T06:16:22;100078.72;;;32.66;33.90
9415;BME280;4746;35.664;139.738;2022-09-29T06:18:50;100077.78;;;32.56;34.28
9415;BME280;4746;35.664;139.738;2022-09-29T06:21:22;100080.47;;;32.45;34.48
9415;BME280;4746;35.664;139.738;2022-09-29T06:23:55;100067.66;;;32.30;35.07
9415;BME280;4746;35.664;139.738;2022-09-29T06:26:24;100089.22;;;32.16;34.72
9415;BME280;4746;35.664;139.738;2022-09-29T06:28:55;100105.75;;;31.97;35.04
9415;BME280;4746;35.664;139.738;2022-09-29T06:31:27;100115.94;;;31.81;35.25
9415;BME280;4746;35.664;139.738;2022-09-29T06:34:03;100101.28;;;31.67;36.10
9415;BME280;4746;35.664;139.738;2022-09-29T06:36:49;100097.44;;;31.49;35.84
9415;BME280;4746;35.664;139.738;2022-09-29T06:39:35;100101.44;;;31.21;36.74
9415;BME280;4746;35.664;139.738;2022-09-29T06:42:03;100105.78;;;31.11;36.79
9415;BME280;4746;35.664;139.738;2022-09-29T06:44:31;100101.31;;;31.01;37.05
9415;BME280;4746;35.664;139.738;2022-09-29T06:46:59;100118.13;;;30.89;37.59
9415;BME280;4746;35.664;139.738;2022-09-29T06:49:27;100120.75;;;30.78;37.87
9415;BME280;4746;35.664;139.738;2022-09-29T06:51:54;100114.44;;;30.68;38.15
9415;BME280;4746;35.664;139.738;2022-09-29T06:54:23;100109.53;;;30.64;37.87
9415;BME280;4746;35.664;139.738;2022-09-29T06:56:53;100108.19;;;30.58;38.27
9415;BME280;4746;35.664;139.738;2022-09-29T06:59:21;100108.44;;;30.55;38.27
9415;BME280;4746;35.664;139.738;2022-09-29T07:01:48;100108.44;;;30.55;38.59
9415;BME280;4746;35.664;139.738;2022-09-29T07:04:17;100110.09;;;30.56;37.81
9415;BME280;4746;35.664;139.738;2022-09-29T07:06:48;100103.78;;;30.70;37.82
9415;BME280;4746;35.664;139.738;2022-09-29T07:09:16;100109.75;;;30.72;37.82
9415;BME280;4746;35.664;139.738;2022-09-29T07:11:49;100112.53;;;30.70;37.51
9415;BME280;4746;35.664;139.738;2022-09-29T07:14:19;100127.91;;;30.54;37.57
9415;BME280;4746;35.664;139.738;2022-09-29T07:16:49;100122.88;;;30.39;37.44
9415;BME280;4746;35.664;139.738;2022-09-29T07:19:17;100125.16;;;30.32;37.37
9415;BME280;4746;35.664;139.738;2022-09-29T07:21:47;100115.88;;;30.27;37.85
9415;BME280;4746;35.664;139.738;2022-09-29T07:24:15;100112.63;;;30.24;37.71
9415;BME280;4746;35.664;139.738;2022-09-29T07:26:43;100114.03;;;30.17;37.94
9415;BME280;4746;35.664;139.738;2022-09-29T07:29:10;100124.84;;;30.14;38.05
9415;BME280;4746;35.664;139.738;2022-09-29T07:31:39;100125.41;;;30.06;38.13
9415;BME280;4746;35.664;139.738;2022-09-29T07:34:06;100118.03;;;29.99;38.71
9415;BME280;4746;35.664;139.738;2022-09-29T07:36:34;100112.34;;;29.92;39.47
9415;BME280;4746;35.664;139.738;2022-09-29T07:39:04;100122.50;;;29.86;39.92
9415;BME280;4746;35.664;139.738;2022-09-29T07:41:32;100123.16;;;29.77;39.97
9415;BME280;4746;35.664;139.738;2022-09-29T07:44:00;100122.34;;;29.64;40.25
9415;BME280;4746;35.664;139.738;2022-09-29T07:46:28;100132.72;;;29.54;40.99
9415;BME280;4746;35.664;139.738;2022-09-29T07:48:55;100131.59;;;29.46;40.99
9415;BME280;4746;35.664;139.738;2022-09-29T07:51:23;100140.69;;;29.42;40.50
9415;BME280;4746;35.664;139.738;2022-09-29T07:53:50;100146.22;;;29.39;40.47
9415;BME280;4746;35.664;139.738;2022-09-29T07:56:21;100149.81;;;29.38;40.39
9415;BME280;4746;35.664;139.738;2022-09-29T07:58:50;100143.22;;;29.31;41.00
9415;BME280;4746;35.664;139.738;2022-09-29T08:01:19;100153.97;;;29.28;40.45
9415;BME280;4746;35.664;139.738;2022-09-29T08:03:52;100157.91;;;29.23;40.50
9415;BME280;4746;35.664;139.738;2022-09-29T08:06:22;100151.69;;;29.11;41.33
9415;BME280;4746;35.664;139.738;2022-09-29T08:08:50;100160.25;;;29.02;41.49
9415;BME280;4746;35.664;139.738;2022-09-29T08:11:20;100163.81;;;29.01;41.78
9415;BME280;4746;35.664;139.738;2022-09-29T08:13:50;100156.22;;;28.97;41.63
9415;BME280;4746;35.664;139.738;2022-09-29T08:16:19;100152.22;;;28.91;41.75
9415;BME280;4746;35.664;139.738;2022-09-29T08:18:47;100154.94;;;28.90;41.80
9415;BME280;4746;35.664;139.738;2022-09-29T08:21:16;100161.28;;;28.87;42.06
9415;BME280;4746;35.664;139.738;2022-09-29T08:23:44;100169.94;;;28.89;42.06
9415;BME280;4746;35.664;139.738;2022-09-29T08:26:19;100191.88;;;28.90;41.85
9415;BME280;4746;35.664;139.738;2022-09-29T08:28:47;100189.34;;;28.76;41.77
9415;BME280;4746;35.664;139.738;2022-09-29T08:31:20;100172.09;;;28.71;42.02
9415;BME280;4746;35.664;139.738;2022-09-29T08:33:50;100178.00;;;28.62;42.70
9415;BME280;4746;35.664;139.738;2022-09-29T08:36:19;100185.56;;;28.54;42.84
9415;BME280;4746;35.664;139.738;2022-09-29T08:38:53;100194.75;;;28.48;42.99
9415;BME280;4746;35.664;139.738;2022-09-29T08:42:10;100177.66;;;28.54;42.88
9415;BME280;4746;35.664;139.738;2022-09-29T08:44:56;100171.75;;;28.50;42.89
9415;BME280;4746;35.664;139.738;2022-09-29T08:47:39;100173.84;;;28.45;43.24
9415;BME280;4746;35.664;139.738;2022-09-29T08:50:32;100170.56;;;28.42;43.33
9415;BME280;4746;35.664;139.738;2022-09-29T08:53:14;100174.34;;;28.38;43.56
9415;BME280;4746;35.664;139.738;2022-09-29T08:56:12;100164.75;;;28.37;43.73
9415;BME280;4746;35.664;139.738;2022-09-29T08:58:43;100170.66;;;28.28;43.93
9415;BME280;4746;35.664;139.738;2022-09-29T09:13:12;100180.94;;;28.18;44.28
9415;BME280;4746;35.664;139.738;2022-09-29T09:16:10;100184.59;;;28.16;44.39
9415;BME280;4746;35.664;139.738;2022-09-29T09:21:43;100185.72;;;28.12;44.64
9415;BME280;4746;35.664;139.738;2022-09-29T09:24:29;100192.69;;;28.13;44.33
9415;BME280;4746;35.664;139.738;2022-09-29T09:26:59;100190.34;;;28.08;44.92
9415;BME280;4746;35.664;139.738;2022-09-29T09:29:45;100189.94;;;28.14;44.52
9415;BME280;4746;35.664;139.738;2022-09-29T09:32:27;100192.56;;;28.14;44.34
9415;BME280;4746;35.664;139.738;2022-09-29T09:35:02;100185.94;;;28.09;44.69
9415;BME280;4746;35.664;139.738;2022-09-29T09:37:39;100184.88;;;28.11;44.45
9415;BME280;4746;35.664;139.738;2022-09-29T09:40:24;100201.53;;;28.12;44.76
9415;BME280;4746;35.664;139.738;2022-09-29T09:43:23;100199.84;;;28.11;44.51
9415;BME280;4746;35.664;139.738;2022-09-29T09:48:50;100198.94;;;27.98;45.03
9415;BME280;4746;35.664;139.738;2022-09-29T09:54:54;100210.16;;;28.02;45.10
9415;BME280;4746;35.664;139.738;2022-09-29T10:02:54;100210.31;;;27.99;45.75
9415;BME280;4746;35.664;139.738;2022-09-29T10:05:46;100225.63;;;28.06;45.25
9415;BME280;4746;35.664;139.738;2022-09-29T10:08:30;100223.22;;;28.03;45.34
9415;BME280;4746;35.664;139.738;2022-09-29T10:11:32;100222.28;;;28.04;45.58
9415;BME280;4746;35.664;139.738;2022-09-29T10:14:23;100224.03;;;28.04;45.85
9415;BME280;4746;35.664;139.738;2022-09-29T10:17:06;100224.03;;;28.04;45.83
9415;BME280;4746;35.664;139.738;2022-09-29T10:20:08;100218.59;;;28.07;45.63
9415;BME280;4746;35.664;139.738;2022-09-29T10:22:36;100220.75;;;28.00;46.07
9415;BME280;4746;35.664;139.738;2022-09-29T10:25:19;100223.00;;;28.06;46.23
9415;BME280;4746;35.664;139.738;2022-09-29T10:27:52;100234.47;;;28.05;46.48
9415;BME280;4746;35.664;139.738;2022-09-29T10:30:33;100229.78;;;28.10;46.39
9415;BME280;4746;35.664;139.738;2022-09-29T10:33:04;100231.78;;;28.07;47.03
9415;BME280;4746;35.664;139.738;2022-09-29T10:35:41;100230.72;;;28.09;46.84
9415;BME280;4746;35.664;139.738;2022-09-29T10:38:25;100243.91;;;28.09;46.78
9415;BME280;4746;35.664;139.738;2022-09-29T10:41:03;100251.72;;;28.10;46.83
9415;BME280;4746;35.664;139.738;2022-09-29T10:43:42;100246.53;;;28.09;46.65
9415;BME280;4746;35.664;139.738;2022-09-29T10:46:47;100236.94;;;28.08;46.69
9415;BME280;4746;35.664;139.738;2022-09-29T10:49:24;100247.88;;;28.02;46.80
9415;BME280;4746;35.664;139.738;2022-09-29T10:52:15;100231.13;;;28.03;47.38
9415;BME280;4746;35.664;139.738;2022-09-29T10:55:02;100219.81;;;28.01;47.49
9415;BME280;4746;35.664;139.738;2022-09-29T10:57:33;100225.47;;;27.95;47.63
9415;BME280;4746;35.664;139.738;2022-09-29T11:00:03;100221.34;;;27.91;47.83
9415;BME280;4746;35.664;139.738;2022-09-29T11:02:40;100229.16;;;27.93;48.19
9415;BME280;4746;35.664;139.738;2022-09-29T11:05:20;100246.75;;;27.92;48.52
9415;BME280;4746;35.664;139.738;2022-09-29T11:07:53;100249.69;;;27.88;48.69
9415;BME280;4746;35.664;139.738;2022-09-29T11:10:45;100255.72;;;27.90;48.04
9415;BME280;4746;35.664;139.738;2022-09-29T11:15:50;100254.50;;;27.81;48.81
9415;BME280;4746;35.664;139.738;2022-09-29T11:18:35;100262.09;;;27.86;48.87
9415;BME280;4746;35.664;139.738;2022-09-29T11:27:56;100246.97;;;27.75;49.35
9415;BME280;4746;35.664;139.738;2022-09-29T11:31:00;100274.44;;;27.71;49.50
9415;BME280;4746;35.664;139.738;2022-09-29T11:37:05;100311.31;;;27.71;49.77
9415;BME280;4746;35.664;139.738;2022-09-29T11:40:00;100306.22;;;27.68;50.03
9415;BME280;4746;35.664;139.738;2022-09-29T11:45:39;100316.28;;;27.62;50.86
9415;BME280;4746;35.664;139.738;2022-09-29T11:48:47;100308.31;;;27.63;50.79
9415;BME280;4746;35.664;139.738;2022-09-29T11:58:28;100315.56;;;27.58;50.96
9415;BME280;4746;35.664;139.738;2022-09-29T12:01:50;100326.31;;;27.55;51.01
9415;BME280;4746;35.664;139.738;2022-09-29T12:11:06;100316.63;;;27.56;51.62
9415;BME280;4746;35.664;139.738;2022-09-29T12:13:56;100314.94;;;27.55;51.83
9415;BME280;4746;35.664;139.738;2022-09-29T12:16:35;100307.88;;;27.55;51.95
9415;BME280;4746;35.664;139.738;2022-09-29T12:19:16;100309.47;;;27.58;52.12
9415;BME280;4746;35.664;139.738;2022-09-29T12:21:51;100299.78;;;27.58;52.65
9415;BME280;4746;35.664;139.738;2022-09-29T12:24:40;100309.97;;;27.64;52.41
9415;BME280;4746;35.664;139.738;2022-09-29T12:27:36;100297.78;;;27.63;52.43
9415;BME280;4746;35.664;139.738;2022-09-29T12:33:15;100291.75;;;27.61;52.69
9415;BME280;4746;35.664;139.738;2022-09-29T12:50:43;100251.66;;;27.56;53.32
9415;BME280;4746;35.664;139.738;2022-09-29T12:53:24;100245.63;;;27.54;53.61
9415;BME280;4746;35.664;139.738;2022-09-29T12:56:34;100244.47;;;27.58;53.09
9415;BME280;4746;35.664;139.738;2022-09-29T13:11:49;100300.34;;;27.49;53.75
9415;BME280;4746;35.664;139.738;2022-09-29T13:15:06;100295.09;;;27.49;53.86
9415;BME280;4746;35.664;139.738;2022-09-29T13:30:24;100328.31;;;27.23;54.94
9415;BME280;4746;35.664;139.738;2022-09-29T13:33:23;100351.25;;;27.21;55.29
9415;BME280;4746;35.664;139.738;2022-09-29T13:35:53;100350.16;;;27.09;56.03
9415;BME280;4746;35.664;139.738;2022-09-29T13:38:51;100336.84;;;27.12;55.22
9415;BME280;4746;35.664;139.738;2022-09-29T13:49:14;100314.28;;;27.08;56.12
9415;BME280;4746;35.664;139.738;2022-09-29T13:54:34;100323.13;;;27.07;56.20
9415;BME280;4746;35.664;139.738;2022-09-29T13:57:22;100322.09;;;27.10;56.55
9415;BME280;4746;35.664;139.738;2022-09-29T14:02:38;100339.84;;;27.20;56.19
9415;BME280;4746;35.664;139.738;2022-09-29T14:10:51;100341.03;;;27.30;56.49
9415;BME280;4746;35.664;139.738;2022-09-29T14:20:18;100332.56;;;27.39;56.35
9415;BME280;4746;35.664;139.738;2022-09-29T14:22:57;100294.38;;;27.32;56.72
9415;BME280;4746;35.664;139.738;2022-09-29T14:28:26;100274.66;;;27.39;56.34
9415;BME280;4746;35.664;139.738;2022-09-29T14:30:59;100276.81;;;27.33;56.81
9415;BME280;4746;35.664;139.738;2022-09-29T14:33:40;100266.03;;;27.37;56.38
9415;BME280;4746;35.664;139.738;2022-09-29T14:36:17;100245.03;;;27.36;56.74
9415;BME280;4746;35.664;139.738;2022-09-29T14:38:56;100258.31;;;27.34;57.04
9415;BME280;4746;35.664;139.738;2022-09-29T14:41:29;100313.00;;;27.29;57.10
9415;BME280;4746;35.664;139.738;2022-09-29T14:44:27;100361.31;;;27.28;56.84
9415;BME280;4746;35.664;139.738;2022-09-29T14:57:00;100383.69;;;27.06;58.15
9415;BME280;4746;35.664;139.738;2022-09-29T14:59:54;100387.09;;;27.08;58.05
9415;BME280;4746;35.664;139.738;2022-09-29T15:02:28;100371.31;;;27.08;58.25
9415;BME280;4746;35.664;139.738;2022-09-29T15:04:57;100347.72;;;27.06;58.53
9415;BME280;4746;35.664;139.738;2022-09-29T15:07:27;100324.72;;;27.10;58.59
9415;BME280;4746;35.664;139.738;2022-09-29T15:09:58;100317.41;;;27.15;58.46
9415;BME280;4746;35.664;139.738;2022-09-29T15:12:29;100328.69;;;27.17;58.36
9415;BME280;4746;35.664;139.738;2022-09-29T15:14:58;100330.44;;;27.16;58.49
9415;BME280;4746;35.664;139.738;2022-09-29T15:17:57;100315.16;;;27.23;58.14
9415;BME280;4746;35.664;139.738;2022-09-29T15:20:52;100330.97;;;27.23;58.19
9415;BME280;4746;35.664;139.738;2022-09-29T15:26:32;100343.72;;;27.15;58.87
9415;BME280;4746;35.664;139.738;2022-09-29T15:29:05;100346.25;;;27.16;58.65
9415;BME280;4746;35.664;139.738;2022-09-29T15:31:34;100348.03;;;27.16;58.70
9415;BME280;4746;35.664;139.738;2022-09-29T15:34:03;100338.34;;;27.16;59.03
9415;BME280;4746;35.664;139.738;2022-09-29T15:36:37;100332.81;;;27.21;58.87
9415;BME280;4746;35.664;139.738;2022-09-29T15:42:21;100369.47;;;27.24;59.04
9415;BME280;4746;35.664;139.738;2022-09-29T15:45:00;100358.94;;;27.24;59.12
9415;BME280;4746;35.664;139.738;2022-09-29T15:47:39;100348.16;;;27.28;58.86
9415;BME280;4746;35.664;139.738;2022-09-29T15:50:25;100335.94;;;27.27;59.07
9415;BME280;4746;35.664;139.738;2022-09-29T15:52:53;100298.63;;;27.21;59.44
9415;BME280;4746;35.664;139.738;2022-09-29T15:55:24;100307.28;;;27.23;59.28
9415;BME280;4746;35.664;139.738;2022-09-29T15:57:51;100319.47;;;27.24;59.30
9415;BME280;4746;35.664;139.738;2022-09-29T16:06:05;100269.66;;;27.21;59.09
9415;BME280;4746;35.664;139.738;2022-09-29T16:08:44;100282.97;;;27.18;59.40
9415;BME280;4746;35.664;139.738;2022-09-29T16:11:30;100304.91;;;27.18;59.06
9415;BME280;4746;35.664;139.738;2022-09-29T16:14:08;100330.28;;;27.19;59.05
9415;BME280;4746;35.664;139.738;2022-09-29T16:16:43;100342.69;;;27.17;58.81
9415;BME280;4746;35.664;139.738;2022-09-29T16:19:25;100354.41;;;27.12;58.84
9415;BME280;4746;35.664;139.738;2022-09-29T16:21:59;100339.56;;;27.11;58.49
9415;BME280;4746;35.664;139.738;2022-09-29T16:24:36;100338.59;;;27.12;58.57
9415;BME280;4746;35.664;139.738;2022-09-29T16:27:56;100340.31;;;27.13;57.94
9415;BME280;4746;35.664;139.738;2022-09-29T16:30:31;100346.69;;;27.09;57.21
9415;BME280;4746;35.664;139.738;2022-09-29T16:33:22;100345.56;;;27.13;56.68
9415;BME280;4746;35.664;139.738;2022-09-29T16:38:35;100316.81;;;27.10;56.16
9415;BME280;4746;35.664;139.738;2022-09-29T16:41:34;100313.94;;;27.14;55.79
9415;BME280;4746;35.664;139.738;2022-09-29T16:44:16;100309.84;;;27.09;55.80
9415;BME280;4746;35.664;139.738;2022-09-29T16:47:23;100308.66;;;27.14;55.69
9415;BME280;4746;35.664;139.738;2022-09-29T16:50:09;100303.47;;;27.13;55.16
9415;BME280;4746;35.664;139.738;2022-09-29T16:52:50;100308.66;;;27.14;54.25
9415;BME280;4746;35.664;139.738;2022-09-29T16:55:25;100316.81;;;27.10;54.11